sensor_id;sensor_type;location;lat;lon;timestamp;P1;durP1;ratioP1;P2;durP2;ratioP2
11996;SDS011;6058;48.704;9.474;2022-11-11T00:00:17;4.10;;;3.27;;
11996;SDS011;6058;48.704;9.474;2022-11-11T00:02:44;3.97;;;3.57;;
11996;SDS011;6058;48.704;9.474;2022-11-11T00:05:13;4.43;;;3.20;;
11996;SDS011;6058;48.704;9.474;2022-11-11T00:07:40;4.60;;;3.23;;
11996;SDS011;6058;48.704;9.474;2022-11-11T00:10:08;3.50;;;3.20;;
11996;SDS011;6058;48.704;9.474;2022-11-11T00:12:37;4.57;;;3.43;;
11996;SDS011;6058;48.704;9.474;2022-11-11T00:15:04;4.87;;;3.20;;
11996;SDS011;6058;48.704;9.474;2022-11-11T00:17:32;4.70;;;3.20;;
11996;SDS011;6058;48.704;9.474;2022-11-11T00:20:17;6.53;;;3.43;;
11996;SDS011;6058;48.704;9.474;2022-11-11T00:23:02;3.17;;;2.87;;
11996;SDS011;6058;48.704;9.474;2022-11-11T00:25:49;3.03;;;2.63;;
11996;SDS011;6058;48.704;9.474;2022-11-11T00:28:18;3.53;;;2.70;;
11996;SDS011;6058;48.704;9.474;2022-11-11T00:30:45;4.33;;;3.03;;
11996;SDS011;6058;48.704;9.474;2022-11-11T00:33:13;5.10;;;3.03;;
11996;SDS011;6058;48.704;9.474;2022-11-11T00:35:40;5.03;;;3.33;;
11996;SDS011;6058;48.704;9.474;2022-11-11T00:38:19;5.50;;;3.97;;
11996;SDS011;6058;48.704;9.474;2022-11-11T00:41:03;3.70;;;3.17;;
11996;SDS011;6058;48.704;9.474;2022-11-11T00:43:32;3.80;;;3.40;;
11996;SDS011;6058;48.704;9.474;2022-11-11T00:45:59;3.00;;;2.67;;
11996;SDS011;6058;48.704;9.474;2022-11-11T00:48:40;4.43;;;3.73;;
11996;SDS011;6058;48.704;9.474;2022-11-11T00:51:25;6.53;;;4.70;;
11996;SDS011;6058;48.704;9.474;2022-11-11T00:53:52;5.57;;;3.87;;
11996;SDS011;6058;48.704;9.474;2022-11-11T00:56:20;4.57;;;3.63;;
11996;SDS011;6058;48.704;9.474;2022-11-11T00:58:49;4.43;;;3.57;;
11996;SDS011;6058;48.704;9.474;2022-11-11T01:01:16;3.83;;;3.50;;
11996;SDS011;6058;48.704;9.474;2022-11-11T01:03:43;3.50;;;3.20;;
11996;SDS011;6058;48.704;9.474;2022-11-11T01:06:10;4.77;;;3.27;;
11996;SDS011;6058;48.704;9.474;2022-11-11T01:08:38;4.17;;;3.23;;
11996;SDS011;6058;48.704;9.474;2022-11-11T01:11:10;3.73;;;3.13;;
11996;SDS011;6058;48.704;9.474;2022-11-11T01:13:37;3.60;;;3.30;;
11996;SDS011;6058;48.704;9.474;2022-11-11T01:16:07;4.97;;;3.60;;
11996;SDS011;6058;48.704;9.474;2022-11-11T01:18:34;5.70;;;3.60;;
11996;SDS011;6058;48.704;9.474;2022-11-11T01:21:02;4.03;;;3.47;;
11996;SDS011;6058;48.704;9.474;2022-11-11T01:23:31;4.33;;;3.70;;
11996;SDS011;6058;48.704;9.474;2022-11-11T01:26:01;4.03;;;3.40;;
11996;SDS011;6058;48.704;9.474;2022-11-11T01:28:28;6.10;;;3.13;;
11996;SDS011;6058;48.704;9.474;2022-11-11T01:30:59;4.23;;;3.43;;
11996;SDS011;6058;48.704;9.474;2022-11-11T01:33:28;4.30;;;3.23;;
11996;SDS011;6058;48.704;9.474;2022-11-11T01:35:55;4.83;;;3.57;;
11996;SDS011;6058;48.704;9.474;2022-11-11T01:38:22;4.83;;;3.17;;
11996;SDS011;6058;48.704;9.474;2022-11-11T01:40:49;5.40;;;3.30;;
11996;SDS011;6058;48.704;9.474;2022-11-11T01:43:17;4.27;;;3.50;;
11996;SDS011;6058;48.704;9.474;2022-11-11T01:45:55;4.33;;;3.17;;
11996;SDS011;6058;48.704;9.474;2022-11-11T01:48:30;4.30;;;3.03;;
11996;SDS011;6058;48.704;9.474;2022-11-11T01:51:17;3.40;;;3.10;;
11996;SDS011;6058;48.704;9.474;2022-11-11T01:53:46;4.27;;;3.20;;
11996;SDS011;6058;48.704;9.474;2022-11-11T01:56:14;4.83;;;3.27;;
11996;SDS011;6058;48.704;9.474;2022-11-11T01:58:42;3.27;;;2.90;;
11996;SDS011;6058;48.704;9.474;2022-11-11T02:01:09;5.20;;;3.50;;
11996;SDS011;6058;48.704;9.474;2022-11-11T02:03:39;4.63;;;3.27;;
11996;SDS011;6058;48.704;9.474;2022-11-11T02:06:28;4.50;;;2.90;;
11996;SDS011;6058;48.704;9.474;2022-11-11T02:08:54;4.43;;;3.50;;
11996;SDS011;6058;48.704;9.474;2022-11-11T02:11:21;5.00;;;3.03;;
11996;SDS011;6058;48.704;9.474;2022-11-11T02:14:03;3.57;;;2.80;;
11996;SDS011;6058;48.704;9.474;2022-11-11T02:16:48;3.20;;;2.87;;
11996;SDS011;6058;48.704;9.474;2022-11-11T02:19:17;3.73;;;2.63;;
11996;SDS011;6058;48.704;9.474;2022-11-11T02:21:48;3.17;;;2.87;;
11996;SDS011;6058;48.704;9.474;2022-11-11T02:24:19;3.40;;;2.93;;
11996;SDS011;6058;48.704;9.474;2022-11-11T02:26:47;7.97;;;4.27;;
11996;SDS011;6058;48.704;9.474;2022-11-11T02:29:16;3.07;;;2.77;;
11996;SDS011;6058;48.704;9.474;2022-11-11T02:31:44;3.53;;;3.10;;
11996;SDS011;6058;48.704;9.474;2022-11-11T02:34:11;4.37;;;3.23;;
11996;SDS011;6058;48.704;9.474;2022-11-11T02:36:38;4.83;;;2.90;;
11996;SDS011;6058;48.704;9.474;2022-11-11T02:39:06;3.30;;;2.80;;
11996;SDS011;6058;48.704;9.474;2022-11-11T02:41:34;3.87;;;3.17;;
11996;SDS011;6058;48.704;9.474;2022-11-11T02:44:19;3.03;;;2.57;;
11996;SDS011;6058;48.704;9.474;2022-11-11T02:46:46;3.23;;;2.93;;
11996;SDS011;6058;48.704;9.474;2022-11-11T02:49:13;3.40;;;2.90;;
11996;SDS011;6058;48.704;9.474;2022-11-11T02:51:40;3.40;;;3.07;;
11996;SDS011;6058;48.704;9.474;2022-11-11T02:54:08;3.13;;;2.80;;
11996;SDS011;6058;48.704;9.474;2022-11-11T02:56:36;3.47;;;2.90;;
11996;SDS011;6058;48.704;9.474;2022-11-11T02:59:21;5.17;;;3.63;;
11996;SDS011;6058;48.704;9.474;2022-11-11T03:01:48;4.43;;;2.90;;
11996;SDS011;6058;48.704;9.474;2022-11-11T03:04:15;4.20;;;2.87;;
11996;SDS011;6058;48.704;9.474;2022-11-11T03:06:42;3.50;;;3.20;;
11996;SDS011;6058;48.704;9.474;2022-11-11T03:09:09;3.40;;;2.53;;
11996;SDS011;6058;48.704;9.474;2022-11-11T03:11:38;2.67;;;2.47;;
11996;SDS011;6058;48.704;9.474;2022-11-11T03:14:05;3.20;;;2.90;;
11996;SDS011;6058;48.704;9.474;2022-11-11T03:16:33;2.77;;;2.43;;
11996;SDS011;6058;48.704;9.474;2022-11-11T03:19:18;2.83;;;2.60;;
11996;SDS011;6058;48.704;9.474;2022-11-11T03:21:45;3.03;;;2.50;;
11996;SDS011;6058;48.704;9.474;2022-11-11T03:24:12;2.83;;;2.60;;
11996;SDS011;6058;48.704;9.474;2022-11-11T03:26:42;4.00;;;2.77;;
11996;SDS011;6058;48.704;9.474;2022-11-11T03:29:09;2.97;;;2.50;;
11996;SDS011;6058;48.704;9.474;2022-11-11T03:31:37;3.27;;;2.97;;
11996;SDS011;6058;48.704;9.474;2022-11-11T03:34:04;3.30;;;3.00;;
11996;SDS011;6058;48.704;9.474;2022-11-11T03:36:43;3.10;;;2.47;;
11996;SDS011;6058;48.704;9.474;2022-11-11T03:39:28;4.10;;;2.80;;
11996;SDS011;6058;48.704;9.474;2022-11-11T03:41:56;3.20;;;2.53;;
11996;SDS011;6058;48.704;9.474;2022-11-11T03:44:24;3.07;;;2.73;;
11996;SDS011;6058;48.704;9.474;2022-11-11T03:46:52;2.50;;;2.30;;
11996;SDS011;6058;48.704;9.474;2022-11-11T03:49:19;2.33;;;2.13;;
11996;SDS011;6058;48.704;9.474;2022-11-11T03:51:46;3.87;;;2.63;;
11996;SDS011;6058;48.704;9.474;2022-11-11T03:54:13;3.13;;;2.50;;
11996;SDS011;6058;48.704;9.474;2022-11-11T03:56:40;2.03;;;1.87;;
11996;SDS011;6058;48.704;9.474;2022-11-11T03:59:09;2.77;;;2.57;;
11996;SDS011;6058;48.704;9.474;2022-11-11T04:01:36;2.50;;;2.30;;
11996;SDS011;6058;48.704;9.474;2022-11-11T04:04:21;2.50;;;2.30;;
11996;SDS011;6058;48.704;9.474;2022-11-11T04:07:06;3.50;;;2.77;;
11996;SDS011;6058;48.704;9.474;2022-11-11T04:09:51;2.77;;;2.50;;
11996;SDS011;6058;48.704;9.474;2022-11-11T04:12:35;2.63;;;2.43;;
11996;SDS011;6058;48.704;9.474;2022-11-11T04:15:18;4.57;;;2.63;;
11996;SDS011;6058;48.704;9.474;2022-11-11T04:18:02;2.90;;;2.33;;
11996;SDS011;6058;48.704;9.474;2022-11-11T04:20:30;5.07;;;3.10;;
11996;SDS011;6058;48.704;9.474;2022-11-11T04:23:14;2.90;;;2.70;;
11996;SDS011;6058;48.704;9.474;2022-11-11T04:25:41;3.10;;;2.80;;
11996;SDS011;6058;48.704;9.474;2022-11-11T04:28:13;2.93;;;2.60;;
11996;SDS011;6058;48.704;9.474;2022-11-11T04:31:00;4.63;;;2.83;;
11996;SDS011;6058;48.704;9.474;2022-11-11T04:33:27;3.80;;;3.00;;
11996;SDS011;6058;48.704;9.474;2022-11-11T04:35:54;4.17;;;2.97;;
11996;SDS011;6058;48.704;9.474;2022-11-11T04:38:21;3.03;;;2.33;;
11996;SDS011;6058;48.704;9.474;2022-11-11T04:41:06;4.00;;;3.00;;
11996;SDS011;6058;48.704;9.474;2022-11-11T04:43:35;2.93;;;2.63;;
11996;SDS011;6058;48.704;9.474;2022-11-11T04:46:23;2.73;;;2.53;;
11996;SDS011;6058;48.704;9.474;2022-11-11T04:48:49;3.63;;;2.73;;
11996;SDS011;6058;48.704;9.474;2022-11-11T04:51:16;2.43;;;2.23;;
11996;SDS011;6058;48.704;9.474;2022-11-11T04:53:44;3.97;;;2.43;;
11996;SDS011;6058;48.704;9.474;2022-11-11T04:56:11;2.50;;;2.30;;
11996;SDS011;6058;48.704;9.474;2022-11-11T04:58:55;3.10;;;2.40;;
11996;SDS011;6058;48.704;9.474;2022-11-11T05:01:38;2.63;;;2.43;;
11996;SDS011;6058;48.704;9.474;2022-11-11T05:04:23;3.03;;;2.63;;
11996;SDS011;6058;48.704;9.474;2022-11-11T05:06:50;3.30;;;2.63;;
11996;SDS011;6058;48.704;9.474;2022-11-11T05:09:34;3.20;;;2.90;;
11996;SDS011;6058;48.704;9.474;2022-11-11T05:12:01;3.73;;;2.67;;
11996;SDS011;6058;48.704;9.474;2022-11-11T05:14:28;4.33;;;2.70;;
11996;SDS011;6058;48.704;9.474;2022-11-11T05:17:15;2.67;;;2.47;;
11996;SDS011;6058;48.704;9.474;2022-11-11T05:19:59;3.40;;;2.27;;
11996;SDS011;6058;48.704;9.474;2022-11-11T05:22:44;2.73;;;2.30;;
11996;SDS011;6058;48.704;9.474;2022-11-11T05:25:11;4.20;;;2.40;;
11996;SDS011;6058;48.704;9.474;2022-11-11T05:27:50;4.17;;;2.63;;
11996;SDS011;6058;48.704;9.474;2022-11-11T05:32:48;2.53;;;2.33;;
11996;SDS011;6058;48.704;9.474;2022-11-11T05:35:16;3.37;;;2.50;;
11996;SDS011;6058;48.704;9.474;2022-11-11T05:37:43;2.37;;;2.17;;
11996;SDS011;6058;48.704;9.474;2022-11-11T05:40:32;9.87;;;2.93;;
11996;SDS011;6058;48.704;9.474;2022-11-11T05:43:00;2.60;;;2.40;;
11996;SDS011;6058;48.704;9.474;2022-11-11T05:45:27;3.20;;;2.90;;
11996;SDS011;6058;48.704;9.474;2022-11-11T05:47:56;3.73;;;2.87;;
11996;SDS011;6058;48.704;9.474;2022-11-11T05:50:26;2.50;;;2.07;;
11996;SDS011;6058;48.704;9.474;2022-11-11T05:52:53;3.50;;;2.40;;
11996;SDS011;6058;48.704;9.474;2022-11-11T05:55:20;2.70;;;2.47;;
11996;SDS011;6058;48.704;9.474;2022-11-11T05:57:48;2.77;;;2.53;;
11996;SDS011;6058;48.704;9.474;2022-11-11T06:00:15;2.90;;;2.60;;
11996;SDS011;6058;48.704;9.474;2022-11-11T06:02:43;4.03;;;3.40;;
11996;SDS011;6058;48.704;9.474;2022-11-11T06:05:11;4.43;;;3.27;;
11996;SDS011;6058;48.704;9.474;2022-11-11T06:07:38;2.83;;;2.63;;
11996;SDS011;6058;48.704;9.474;2022-11-11T06:10:06;2.40;;;2.20;;
11996;SDS011;6058;48.704;9.474;2022-11-11T06:12:51;2.50;;;2.30;;
11996;SDS011;6058;48.704;9.474;2022-11-11T06:15:29;2.80;;;2.60;;
11996;SDS011;6058;48.704;9.474;2022-11-11T06:17:57;2.57;;;2.33;;
11996;SDS011;6058;48.704;9.474;2022-11-11T06:20:25;2.40;;;2.20;;
11996;SDS011;6058;48.704;9.474;2022-11-11T06:22:53;4.33;;;2.60;;
11996;SDS011;6058;48.704;9.474;2022-11-11T06:25:23;2.43;;;2.23;;
11996;SDS011;6058;48.704;9.474;2022-11-11T06:28:08;3.00;;;2.60;;
11996;SDS011;6058;48.704;9.474;2022-11-11T06:30:35;2.90;;;2.27;;
11996;SDS011;6058;48.704;9.474;2022-11-11T06:33:03;3.13;;;2.13;;
11996;SDS011;6058;48.704;9.474;2022-11-11T06:35:33;3.13;;;2.40;;
11996;SDS011;6058;48.704;9.474;2022-11-11T06:38:00;2.87;;;2.37;;
11996;SDS011;6058;48.704;9.474;2022-11-11T06:40:28;2.10;;;1.93;;
11996;SDS011;6058;48.704;9.474;2022-11-11T06:42:56;2.70;;;2.50;;
11996;SDS011;6058;48.704;9.474;2022-11-11T06:45:23;2.07;;;1.87;;
11996;SDS011;6058;48.704;9.474;2022-11-11T06:47:50;2.87;;;2.20;;
11996;SDS011;6058;48.704;9.474;2022-11-11T06:50:17;2.67;;;2.47;;
11996;SDS011;6058;48.704;9.474;2022-11-11T06:52:46;3.57;;;2.30;;
11996;SDS011;6058;48.704;9.474;2022-11-11T06:55:13;2.07;;;1.97;;
11996;SDS011;6058;48.704;9.474;2022-11-11T06:57:42;2.10;;;2.00;;
11996;SDS011;6058;48.704;9.474;2022-11-11T07:00:10;2.60;;;2.40;;
11996;SDS011;6058;48.704;9.474;2022-11-11T07:02:37;2.40;;;2.20;;
11996;SDS011;6058;48.704;9.474;2022-11-11T07:05:05;2.53;;;2.30;;
11996;SDS011;6058;48.704;9.474;2022-11-11T07:07:32;3.20;;;2.40;;
11996;SDS011;6058;48.704;9.474;2022-11-11T07:10:02;2.77;;;2.57;;
11996;SDS011;6058;48.704;9.474;2022-11-11T07:12:31;2.43;;;2.23;;
11996;SDS011;6058;48.704;9.474;2022-11-11T07:17:28;4.00;;;2.27;;
11996;SDS011;6058;48.704;9.474;2022-11-11T07:19:55;2.27;;;2.10;;
11996;SDS011;6058;48.704;9.474;2022-11-11T07:22:23;2.27;;;1.77;;
11996;SDS011;6058;48.704;9.474;2022-11-11T07:24:50;3.83;;;2.30;;
11996;SDS011;6058;48.704;9.474;2022-11-11T07:27:18;2.40;;;2.20;;
11996;SDS011;6058;48.704;9.474;2022-11-11T07:29:45;2.40;;;2.20;;
11996;SDS011;6058;48.704;9.474;2022-11-11T07:32:13;2.40;;;2.20;;
11996;SDS011;6058;48.704;9.474;2022-11-11T07:34:41;2.40;;;2.20;;
11996;SDS011;6058;48.704;9.474;2022-11-11T07:37:08;3.23;;;2.93;;
11996;SDS011;6058;48.704;9.474;2022-11-11T07:39:35;2.63;;;2.43;;
11996;SDS011;6058;48.704;9.474;2022-11-11T07:42:03;3.00;;;2.70;;
11996;SDS011;6058;48.704;9.474;2022-11-11T07:44:31;4.77;;;2.47;;
11996;SDS011;6058;48.704;9.474;2022-11-11T07:46:58;3.57;;;2.90;;
11996;SDS011;6058;48.704;9.474;2022-11-11T07:49:25;3.80;;;3.47;;
11996;SDS011;6058;48.704;9.474;2022-11-11T07:51:52;3.53;;;3.13;;
11996;SDS011;6058;48.704;9.474;2022-11-11T07:54:20;5.07;;;2.60;;
11996;SDS011;6058;48.704;9.474;2022-11-11T07:56:47;4.23;;;3.40;;
11996;SDS011;6058;48.704;9.474;2022-11-11T07:59:14;6.83;;;3.60;;
11996;SDS011;6058;48.704;9.474;2022-11-11T08:01:42;3.57;;;2.83;;
11996;SDS011;6058;48.704;9.474;2022-11-11T08:04:10;3.90;;;3.07;;
11996;SDS011;6058;48.704;9.474;2022-11-11T08:06:37;3.43;;;3.13;;
11996;SDS011;6058;48.704;9.474;2022-11-11T08:09:04;3.50;;;3.20;;
11996;SDS011;6058;48.704;9.474;2022-11-11T08:11:31;4.97;;;3.67;;
11996;SDS011;6058;48.704;9.474;2022-11-11T08:14:16;4.20;;;3.47;;
11996;SDS011;6058;48.704;9.474;2022-11-11T08:16:45;4.23;;;3.50;;
11996;SDS011;6058;48.704;9.474;2022-11-11T08:19:12;6.47;;;4.00;;
11996;SDS011;6058;48.704;9.474;2022-11-11T08:21:39;5.53;;;3.77;;
11996;SDS011;6058;48.704;9.474;2022-11-11T08:24:06;4.80;;;3.73;;
11996;SDS011;6058;48.704;9.474;2022-11-11T08:26:33;6.10;;;4.17;;
11996;SDS011;6058;48.704;9.474;2022-11-11T08:29:00;4.67;;;3.63;;
11996;SDS011;6058;48.704;9.474;2022-11-11T08:31:28;5.80;;;3.43;;
11996;SDS011;6058;48.704;9.474;2022-11-11T08:33:57;6.03;;;3.93;;
11996;SDS011;6058;48.704;9.474;2022-11-11T08:36:25;11.50;;;4.40;;
11996;SDS011;6058;48.704;9.474;2022-11-11T08:38:52;4.60;;;3.73;;
11996;SDS011;6058;48.704;9.474;2022-11-11T08:41:19;7.13;;;3.60;;
11996;SDS011;6058;48.704;9.474;2022-11-11T08:43:49;4.57;;;3.30;;
11996;SDS011;6058;48.704;9.474;2022-11-11T08:46:17;5.67;;;3.73;;
11996;SDS011;6058;48.704;9.474;2022-11-11T08:48:44;4.43;;;3.83;;
11996;SDS011;6058;48.704;9.474;2022-11-11T08:51:13;7.30;;;4.30;;
11996;SDS011;6058;48.704;9.474;2022-11-11T08:53:40;5.33;;;3.80;;
11996;SDS011;6058;48.704;9.474;2022-11-11T08:56:07;6.03;;;4.20;;
11996;SDS011;6058;48.704;9.474;2022-11-11T08:58:36;6.73;;;4.63;;
11996;SDS011;6058;48.704;9.474;2022-11-11T09:01:03;7.17;;;4.40;;
11996;SDS011;6058;48.704;9.474;2022-11-11T09:03:30;5.07;;;4.00;;
11996;SDS011;6058;48.704;9.474;2022-11-11T09:05:58;5.40;;;4.50;;
11996;SDS011;6058;48.704;9.474;2022-11-11T09:08:26;7.07;;;4.33;;
11996;SDS011;6058;48.704;9.474;2022-11-11T09:10:53;6.63;;;4.77;;
11996;SDS011;6058;48.704;9.474;2022-11-11T09:13:22;6.20;;;4.40;;
11996;SDS011;6058;48.704;9.474;2022-11-11T09:15:50;8.50;;;4.80;;
11996;SDS011;6058;48.704;9.474;2022-11-11T09:18:18;7.30;;;4.40;;
11996;SDS011;6058;48.704;9.474;2022-11-11T09:20:45;4.77;;;4.27;;
11996;SDS011;6058;48.704;9.474;2022-11-11T09:23:13;10.10;;;4.33;;
11996;SDS011;6058;48.704;9.474;2022-11-11T09:25:41;4.37;;;3.97;;
11996;SDS011;6058;48.704;9.474;2022-11-11T09:28:08;4.67;;;3.90;;
11996;SDS011;6058;48.704;9.474;2022-11-11T09:30:36;7.47;;;4.23;;
11996;SDS011;6058;48.704;9.474;2022-11-11T09:33:08;6.37;;;4.50;;
11996;SDS011;6058;48.704;9.474;2022-11-11T09:35:37;5.53;;;3.90;;
11996;SDS011;6058;48.704;9.474;2022-11-11T09:38:05;5.83;;;4.37;;
11996;SDS011;6058;48.704;9.474;2022-11-11T09:40:34;7.00;;;4.97;;
11996;SDS011;6058;48.704;9.474;2022-11-11T09:43:08;6.73;;;4.63;;
11996;SDS011;6058;48.704;9.474;2022-11-11T09:45:42;7.30;;;5.10;;
11996;SDS011;6058;48.704;9.474;2022-11-11T09:48:19;5.77;;;4.90;;
11996;SDS011;6058;48.704;9.474;2022-11-11T09:50:51;4.93;;;4.53;;
11996;SDS011;6058;48.704;9.474;2022-11-11T09:53:21;6.23;;;4.90;;
11996;SDS011;6058;48.704;9.474;2022-11-11T09:55:51;9.67;;;4.90;;
11996;SDS011;6058;48.704;9.474;2022-11-11T09:58:21;8.90;;;5.00;;
11996;SDS011;6058;48.704;9.474;2022-11-11T10:00:52;7.50;;;5.00;;
11996;SDS011;6058;48.704;9.474;2022-11-11T10:03:21;7.40;;;5.27;;
11996;SDS011;6058;48.704;9.474;2022-11-11T10:05:51;6.80;;;5.17;;
11996;SDS011;6058;48.704;9.474;2022-11-11T10:08:22;5.43;;;4.93;;
11996;SDS011;6058;48.704;9.474;2022-11-11T10:11:00;10.27;;;5.63;;
11996;SDS011;6058;48.704;9.474;2022-11-11T10:13:32;7.30;;;5.73;;
11996;SDS011;6058;48.704;9.474;2022-11-11T10:16:15;7.70;;;5.70;;
11996;SDS011;6058;48.704;9.474;2022-11-11T10:18:48;6.57;;;5.50;;
11996;SDS011;6058;48.704;9.474;2022-11-11T10:21:25;7.60;;;5.80;;
11996;SDS011;6058;48.704;9.474;2022-11-11T10:24:04;6.47;;;5.07;;
11996;SDS011;6058;48.704;9.474;2022-11-11T10:26:36;8.43;;;5.63;;
11996;SDS011;6058;48.704;9.474;2022-11-11T10:29:08;7.40;;;5.10;;
11996;SDS011;6058;48.704;9.474;2022-11-11T10:31:36;7.47;;;5.90;;
11996;SDS011;6058;48.704;9.474;2022-11-11T10:34:05;7.27;;;5.27;;
11996;SDS011;6058;48.704;9.474;2022-11-11T10:36:36;8.27;;;5.93;;
11996;SDS011;6058;48.704;9.474;2022-11-11T10:39:19;5.80;;;5.17;;
11996;SDS011;6058;48.704;9.474;2022-11-11T10:41:48;10.60;;;6.20;;
11996;SDS011;6058;48.704;9.474;2022-11-11T10:44:21;10.97;;;5.57;;
11996;SDS011;6058;48.704;9.474;2022-11-11T10:46:51;7.53;;;6.10;;
11996;SDS011;6058;48.704;9.474;2022-11-11T10:49:22;8.80;;;5.97;;
11996;SDS011;6058;48.704;9.474;2022-11-11T10:51:50;9.50;;;5.77;;
11996;SDS011;6058;48.704;9.474;2022-11-11T10:54:20;7.33;;;5.83;;
11996;SDS011;6058;48.704;9.474;2022-11-11T10:56:50;6.23;;;5.53;;
11996;SDS011;6058;48.704;9.474;2022-11-11T10:59:23;7.37;;;5.47;;
11996;SDS011;6058;48.704;9.474;2022-11-11T11:01:51;9.47;;;5.20;;
11996;SDS011;6058;48.704;9.474;2022-11-11T11:04:23;7.23;;;4.70;;
11996;SDS011;6058;48.704;9.474;2022-11-11T11:06:52;6.83;;;4.43;;
11996;SDS011;6058;48.704;9.474;2022-11-11T11:09:21;6.00;;;5.27;;
11996;SDS011;6058;48.704;9.474;2022-11-11T11:11:50;8.00;;;5.93;;
11996;SDS011;6058;48.704;9.474;2022-11-11T11:14:22;6.90;;;4.77;;
11996;SDS011;6058;48.704;9.474;2022-11-11T11:16:51;6.83;;;5.70;;
11996;SDS011;6058;48.704;9.474;2022-11-11T11:19:20;7.50;;;5.93;;
11996;SDS011;6058;48.704;9.474;2022-11-11T11:21:49;10.30;;;5.97;;
11996;SDS011;6058;48.704;9.474;2022-11-11T11:24:20;9.40;;;5.90;;
11996;SDS011;6058;48.704;9.474;2022-11-11T11:26:49;6.80;;;5.67;;
11996;SDS011;6058;48.704;9.474;2022-11-11T11:29:28;6.80;;;4.93;;
11996;SDS011;6058;48.704;9.474;2022-11-11T11:31:58;7.63;;;4.77;;
11996;SDS011;6058;48.704;9.474;2022-11-11T11:34:43;5.40;;;4.50;;
11996;SDS011;6058;48.704;9.474;2022-11-11T11:37:11;4.40;;;3.60;;
11996;SDS011;6058;48.704;9.474;2022-11-11T11:39:38;4.77;;;4.03;;
11996;SDS011;6058;48.704;9.474;2022-11-11T11:42:06;6.17;;;3.93;;
11996;SDS011;6058;48.704;9.474;2022-11-11T11:44:36;5.60;;;3.93;;
11996;SDS011;6058;48.704;9.474;2022-11-11T11:47:13;7.47;;;4.53;;
11996;SDS011;6058;48.704;9.474;2022-11-11T11:49:46;6.53;;;4.87;;
11996;SDS011;6058;48.704;9.474;2022-11-11T11:52:18;5.97;;;4.33;;
11996;SDS011;6058;48.704;9.474;2022-11-11T11:54:49;7.63;;;5.30;;
11996;SDS011;6058;48.704;9.474;2022-11-11T11:57:22;9.07;;;5.87;;
11996;SDS011;6058;48.704;9.474;2022-11-11T11:59:55;5.97;;;4.60;;
11996;SDS011;6058;48.704;9.474;2022-11-11T12:02:31;9.90;;;5.80;;
11996;SDS011;6058;48.704;9.474;2022-11-11T12:05:01;7.67;;;5.30;;
11996;SDS011;6058;48.704;9.474;2022-11-11T12:07:44;7.60;;;5.27;;
11996;SDS011;6058;48.704;9.474;2022-11-11T12:10:19;6.27;;;5.10;;
11996;SDS011;6058;48.704;9.474;2022-11-11T12:12:50;8.83;;;5.23;;
11996;SDS011;6058;48.704;9.474;2022-11-11T12:15:26;6.97;;;4.77;;
11996;SDS011;6058;48.704;9.474;2022-11-11T12:18:09;5.10;;;4.50;;
11996;SDS011;6058;48.704;9.474;2022-11-11T12:20:43;5.00;;;4.03;;
11996;SDS011;6058;48.704;9.474;2022-11-11T12:26:03;5.00;;;4.13;;
11996;SDS011;6058;48.704;9.474;2022-11-11T12:28:37;9.07;;;4.57;;
11996;SDS011;6058;48.704;9.474;2022-11-11T12:31:14;4.60;;;4.13;;
11996;SDS011;6058;48.704;9.474;2022-11-11T12:33:48;4.00;;;3.53;;
11996;SDS011;6058;48.704;9.474;2022-11-11T12:36:19;6.30;;;4.37;;
11996;SDS011;6058;48.704;9.474;2022-11-11T12:38:49;7.47;;;4.70;;
11996;SDS011;6058;48.704;9.474;2022-11-11T12:41:23;5.20;;;4.20;;
11996;SDS011;6058;48.704;9.474;2022-11-11T12:43:55;6.57;;;4.37;;
11996;SDS011;6058;48.704;9.474;2022-11-11T12:46:31;6.40;;;4.60;;
11996;SDS011;6058;48.704;9.474;2022-11-11T12:49:01;9.43;;;5.00;;
11996;SDS011;6058;48.704;9.474;2022-11-11T12:54:21;5.83;;;3.70;;
11996;SDS011;6058;48.704;9.474;2022-11-11T12:56:53;5.43;;;4.10;;
11996;SDS011;6058;48.704;9.474;2022-11-11T12:59:24;9.07;;;3.67;;
11996;SDS011;6058;48.704;9.474;2022-11-11T13:01:56;8.20;;;4.43;;
11996;SDS011;6058;48.704;9.474;2022-11-11T13:04:41;6.10;;;4.37;;
11996;SDS011;6058;48.704;9.474;2022-11-11T13:09:56;7.37;;;4.37;;
11996;SDS011;6058;48.704;9.474;2022-11-11T13:12:29;6.17;;;4.00;;
11996;SDS011;6058;48.704;9.474;2022-11-11T13:15:00;6.00;;;4.33;;
11996;SDS011;6058;48.704;9.474;2022-11-11T13:17:36;7.57;;;4.53;;
11996;SDS011;6058;48.704;9.474;2022-11-11T13:20:05;6.80;;;4.40;;
11996;SDS011;6058;48.704;9.474;2022-11-11T13:22:38;5.70;;;4.40;;
11996;SDS011;6058;48.704;9.474;2022-11-11T13:25:06;7.00;;;4.60;;
11996;SDS011;6058;48.704;9.474;2022-11-11T13:27:35;5.00;;;4.37;;
11996;SDS011;6058;48.704;9.474;2022-11-11T13:30:06;5.17;;;4.33;;
11996;SDS011;6058;48.704;9.474;2022-11-11T13:32:38;5.83;;;4.40;;
11996;SDS011;6058;48.704;9.474;2022-11-11T13:35:15;5.20;;;4.70;;
11996;SDS011;6058;48.704;9.474;2022-11-11T13:37:46;5.60;;;4.13;;
11996;SDS011;6058;48.704;9.474;2022-11-11T13:40:23;7.97;;;4.67;;
11996;SDS011;6058;48.704;9.474;2022-11-11T13:42:52;7.07;;;4.37;;
11996;SDS011;6058;48.704;9.474;2022-11-11T13:45:22;5.83;;;4.07;;
11996;SDS011;6058;48.704;9.474;2022-11-11T13:47:51;6.67;;;4.37;;
11996;SDS011;6058;48.704;9.474;2022-11-11T13:50:21;6.37;;;5.00;;
11996;SDS011;6058;48.704;9.474;2022-11-11T13:52:51;5.57;;;4.50;;
11996;SDS011;6058;48.704;9.474;2022-11-11T13:55:23;6.93;;;5.07;;
11996;SDS011;6058;48.704;9.474;2022-11-11T13:57:52;8.17;;;5.27;;
11996;SDS011;6058;48.704;9.474;2022-11-11T14:00:23;6.60;;;5.17;;
11996;SDS011;6058;48.704;9.474;2022-11-11T14:05:34;6.07;;;4.60;;
11996;SDS011;6058;48.704;9.474;2022-11-11T14:08:02;7.47;;;4.70;;
11996;SDS011;6058;48.704;9.474;2022-11-11T14:10:48;6.57;;;4.80;;
11996;SDS011;6058;48.704;9.474;2022-11-11T14:13:35;5.47;;;4.37;;
11996;SDS011;6058;48.704;9.474;2022-11-11T14:16:03;5.10;;;4.60;;
11996;SDS011;6058;48.704;9.474;2022-11-11T14:18:37;4.80;;;3.83;;
11996;SDS011;6058;48.704;9.474;2022-11-11T14:21:07;6.77;;;4.50;;
11996;SDS011;6058;48.704;9.474;2022-11-11T14:23:35;5.03;;;3.90;;
11996;SDS011;6058;48.704;9.474;2022-11-11T14:28:51;6.63;;;4.40;;
11996;SDS011;6058;48.704;9.474;2022-11-11T14:31:42;6.30;;;4.50;;
11996;SDS011;6058;48.704;9.474;2022-11-11T14:34:14;7.67;;;4.77;;
11996;SDS011;6058;48.704;9.474;2022-11-11T14:36:47;10.03;;;5.03;;
11996;SDS011;6058;48.704;9.474;2022-11-11T14:39:19;7.00;;;4.73;;
11996;SDS011;6058;48.704;9.474;2022-11-11T14:41:50;8.00;;;4.90;;
11996;SDS011;6058;48.704;9.474;2022-11-11T14:49:56;6.97;;;5.03;;
11996;SDS011;6058;48.704;9.474;2022-11-11T14:52:29;6.50;;;4.83;;
11996;SDS011;6058;48.704;9.474;2022-11-11T14:55:00;6.17;;;4.33;;
11996;SDS011;6058;48.704;9.474;2022-11-11T14:57:31;6.67;;;4.60;;
11996;SDS011;6058;48.704;9.474;2022-11-11T15:00:00;6.40;;;4.70;;
11996;SDS011;6058;48.704;9.474;2022-11-11T15:02:29;6.33;;;4.50;;
11996;SDS011;6058;48.704;9.474;2022-11-11T15:04:59;7.93;;;4.50;;
11996;SDS011;6058;48.704;9.474;2022-11-11T15:07:30;5.83;;;4.80;;
11996;SDS011;6058;48.704;9.474;2022-11-11T15:12:47;12.13;;;5.40;;
11996;SDS011;6058;48.704;9.474;2022-11-11T15:15:20;6.87;;;4.63;;
11996;SDS011;6058;48.704;9.474;2022-11-11T15:17:52;7.17;;;5.13;;
11996;SDS011;6058;48.704;9.474;2022-11-11T15:20:30;6.40;;;4.50;;
11996;SDS011;6058;48.704;9.474;2022-11-11T15:23:03;10.60;;;6.07;;
11996;SDS011;6058;48.704;9.474;2022-11-11T15:25:36;6.20;;;4.93;;
11996;SDS011;6058;48.704;9.474;2022-11-11T15:28:10;8.10;;;5.43;;
11996;SDS011;6058;48.704;9.474;2022-11-11T15:30:44;7.03;;;4.87;;
11996;SDS011;6058;48.704;9.474;2022-11-11T15:33:14;7.80;;;5.30;;
11996;SDS011;6058;48.704;9.474;2022-11-11T15:35:45;8.53;;;5.07;;
11996;SDS011;6058;48.704;9.474;2022-11-11T15:38:19;6.67;;;5.03;;
11996;SDS011;6058;48.704;9.474;2022-11-11T15:40:47;5.53;;;4.87;;
11996;SDS011;6058;48.704;9.474;2022-11-11T15:43:16;7.27;;;4.47;;
11996;SDS011;6058;48.704;9.474;2022-11-11T15:45:44;4.93;;;3.87;;
11996;SDS011;6058;48.704;9.474;2022-11-11T15:48:15;6.00;;;4.40;;
11996;SDS011;6058;48.704;9.474;2022-11-11T15:50:44;7.50;;;4.07;;